Overview Statistics Trail Chart Weather Telemetry Raw packets
 

This is the latest recevied weather packets stored in our database for station/object N7AWM. If no packets are shown the sender has not sent any weather packets the latest 10 day(s).

<< 1 2 3 4 5 6 >>
Time Temp. Humidity Pressure Rain* Wind** Luminosity Snow
1788573701 14.44° C 60% 1012.4 hPa 0 mm - - -
1788572861 15° C 58% 1012.2 hPa 0 mm - - -
1788572021 16.11° C 57% 1012 hPa 0 mm - - -
1788571181 16.11° C 55% 1011.8 hPa 0 mm - - -
1788570341 16.11° C 54% 1011.8 hPa 0 mm - - -
1788569501 16.11° C 54% 1011.6 hPa 0 mm - - -
1788568661 16.11° C 53% 1011.5 hPa 0 mm - - -
1788567821 16.67° C 50% 1011.5 hPa 0 mm - - -
1788566981 16.11° C 53% 1011.6 hPa 0 mm - - -
1788566141 16.11° C 56% 1011.5 hPa 0 mm - - -
1788565301 16.11° C 53% 1011.4 hPa 0 mm - - -
1788564462 16.11° C 54% 1011.3 hPa 0 mm - - -
1788563622 16.11° C 55% 1011.3 hPa 0 mm - - -
1788562782 16.11° C 58% 1011.2 hPa 0 mm - - -
1788561942 15.56° C 63% 1011.2 hPa 0 mm - - -
1788561102 15° C 60% 1011.3 hPa 0 mm - - -
1788560264 14.44° C 62% 1011.2 hPa 0 mm - - -
1788559422 14.44° C 63% 1011.3 hPa 0 mm - - -
1788558582 15° C 60% 1011.4 hPa 0 mm - - -
1788557742 15.56° C 59% 1011.3 hPa 0 mm - - -
1788556902 16.11° C 58% 1011.1 hPa 0 mm - - -
1788556062 16.11° C 59% 1010.9 hPa 0 mm - - -
1788555222 16.67° C 56% 1010.7 hPa 0 mm - - -
1788554382 17.22° C 52% 1010.5 hPa 0 mm - - -
1788553542 17.78° C 51% 1010.5 hPa 0 mm - - -

* Rain latest hour (hover to see other rain measurements)
** Current wind speed in m/s (hover to see current wind gust speed)